createdAt,value
2023-01-08T00:02:14.334Z,5.00
2023-01-08T00:05:13.278Z,5.03
2023-01-08T00:07:55.803Z,5.18
2023-01-08T00:10:22.841Z,5.22
2023-01-08T00:12:49.926Z,4.70
2023-01-08T00:15:28.039Z,4.70
2023-01-08T00:17:55.039Z,4.57
2023-01-08T00:20:25.035Z,5.00
2023-01-08T00:23:19.829Z,4.53
2023-01-08T00:25:47.285Z,5.63
2023-01-08T00:28:15.386Z,5.43
2023-01-08T00:30:42.909Z,6.22
2023-01-08T00:33:10.970Z,5.80
2023-01-08T00:35:39.456Z,4.85
2023-01-08T00:38:10.301Z,6.43
2023-01-08T00:40:40.650Z,4.82
2023-01-08T00:43:08.259Z,4.60
2023-01-08T00:45:35.799Z,5.40
2023-01-08T00:48:05.583Z,3.92
2023-01-08T00:50:35.700Z,4.10
2023-01-08T00:53:06.841Z,4.35
2023-01-08T00:55:34.309Z,4.15
2023-01-08T00:58:01.245Z,3.75
2023-01-08T01:00:30.997Z,4.25
2023-01-08T01:03:00.903Z,3.70
2023-01-08T01:05:27.854Z,4.25
2023-01-08T01:08:07.135Z,3.97
2023-01-08T01:10:40.371Z,4.22
2023-01-08T01:13:29.499Z,3.80
2023-01-08T01:16:28.159Z,3.40
2023-01-08T01:18:58.283Z,3.58
2023-01-08T01:21:35.163Z,3.72
2023-01-08T01:24:07.232Z,2.75
2023-01-08T01:26:36.714Z,3.55
2023-01-08T01:29:06.764Z,2.67
2023-01-08T01:31:55.661Z,3.05
2023-01-08T01:34:43.908Z,2.83
2023-01-08T01:39:49.246Z,3.28
2023-01-08T01:42:38.265Z,3.42
2023-01-08T01:45:19.503Z,3.13
2023-01-08T01:48:11.510Z,3.03
2023-01-08T01:50:49.749Z,3.00
2023-01-08T01:53:51.502Z,2.50
2023-01-08T01:56:18.678Z,2.75
2023-01-08T01:58:48.443Z,3.15
2023-01-08T02:01:20.100Z,2.90
2023-01-08T02:03:50.127Z,2.45
2023-01-08T02:06:28.535Z,2.80
2023-01-08T02:08:57.432Z,2.85
2023-01-08T02:11:43.017Z,2.65
2023-01-08T02:14:37.971Z,2.85
2023-01-08T02:17:10.874Z,2.35
2023-01-08T02:19:41.391Z,2.72
2023-01-08T02:22:42.358Z,2.53
2023-01-08T02:25:40.721Z,2.80
2023-01-08T02:28:13.317Z,2.60
2023-01-08T02:31:12.380Z,2.83
2023-01-08T02:33:41.177Z,2.47
2023-01-08T02:36:24.086Z,2.63
2023-01-08T02:39:15.316Z,2.90
2023-01-08T02:41:51.461Z,2.90
2023-01-08T02:44:54.087Z,3.13
2023-01-08T02:47:45.057Z,2.80
2023-01-08T02:50:36.891Z,2.42
2023-01-08T02:53:25.701Z,2.95
2023-01-08T02:55:57.897Z,2.50
2023-01-08T02:58:27.949Z,2.33
2023-01-08T03:00:55.264Z,2.30
2023-01-08T03:03:27.386Z,2.63
2023-01-08T03:06:03.189Z,2.63
2023-01-08T03:08:34.390Z,2.50
2023-01-08T03:11:11.251Z,2.88
2023-01-08T03:14:00.570Z,2.40
2023-01-08T03:16:38.364Z,3.25
2023-01-08T03:19:54.950Z,2.10
2023-01-08T03:22:24.179Z,2.28
2023-01-08T03:24:54.879Z,2.50
2023-01-08T03:27:28.311Z,2.75
2023-01-08T03:29:58.577Z,3.00
2023-01-08T03:32:48.381Z,2.63
2023-01-08T03:35:40.484Z,3.05
2023-01-08T03:38:18.905Z,2.90
2023-01-08T03:40:51.890Z,2.70
2023-01-08T03:43:18.993Z,2.78
2023-01-08T03:45:57.429Z,2.60
2023-01-08T03:49:13.381Z,2.83
2023-01-08T03:51:24.997Z,2.50
2023-01-08T03:53:56.835Z,2.50
2023-01-08T03:56:23.750Z,2.80
2023-01-08T04:01:36.209Z,2.92
2023-01-08T04:04:03.360Z,2.70
2023-01-08T04:06:37.137Z,3.47
2023-01-08T04:09:07.549Z,3.55
2023-01-08T04:11:40.744Z,3.20
2023-01-08T04:14:08.529Z,3.10
2023-01-08T04:16:35.615Z,2.83
2023-01-08T04:19:02.600Z,2.92
2023-01-08T04:21:29.714Z,3.13
2023-01-08T04:28:21.352Z,3.15
2023-01-08T04:34:21.555Z,3.13
2023-01-08T04:36:55.908Z,3.30
2023-01-08T04:39:22.978Z,3.67
2023-01-08T04:42:20.938Z,3.05
2023-01-08T04:44:47.976Z,3.05
2023-01-08T04:47:15.954Z,3.42
2023-01-08T04:49:48.925Z,3.65
2023-01-08T04:52:15.908Z,3.30
2023-01-08T04:54:42.944Z,3.30
2023-01-08T04:57:10.854Z,3.17
2023-01-08T04:59:38.041Z,3.78
2023-01-08T05:02:12.504Z,3.58
2023-01-08T05:07:07.975Z,3.17
2023-01-08T05:09:34.962Z,3.40
2023-01-08T05:12:19.705Z,3.72
2023-01-08T05:14:47.732Z,4.60
2023-01-08T05:19:58.818Z,3.67
2023-01-08T05:22:25.844Z,3.72
2023-01-08T05:24:52.833Z,4.15
2023-01-08T05:27:21.199Z,3.95
2023-01-08T05:29:48.218Z,3.83
2023-01-08T05:32:17.057Z,3.83
2023-01-08T05:34:44.940Z,4.20
2023-01-08T05:37:12.236Z,3.65
2023-01-08T05:39:39.267Z,3.20
2023-01-08T05:42:07.275Z,3.92
2023-01-08T05:44:38.424Z,3.15
2023-01-08T05:47:05.471Z,2.95
2023-01-08T05:49:54.386Z,3.17
2023-01-08T05:52:23.173Z,3.17
2023-01-08T05:55:15.325Z,3.50
2023-01-08T05:57:45.743Z,3.03
2023-01-08T06:00:15.856Z,3.00
2023-01-08T06:02:47.711Z,3.17
2023-01-08T06:05:28.588Z,3.63
2023-01-08T06:07:55.606Z,3.00
2023-01-08T06:10:47.875Z,3.00
2023-01-08T06:13:22.387Z,3.85
2023-01-08T06:15:49.540Z,2.83
2023-01-08T06:18:16.739Z,3.20
2023-01-08T06:20:43.791Z,2.97
2023-01-08T06:23:11.866Z,2.70
2023-01-08T06:25:38.907Z,2.80
2023-01-08T06:28:24.078Z,2.67
2023-01-08T06:31:00.552Z,3.00
2023-01-08T06:33:27.807Z,3.20
2023-01-08T06:36:08.260Z,3.17
2023-01-08T06:38:43.867Z,3.36
2023-01-08T06:41:19.333Z,3.20
2023-01-08T06:43:49.685Z,3.35
2023-01-08T06:46:16.685Z,3.13
2023-01-08T06:48:45.621Z,3.15
2023-01-08T06:51:12.595Z,3.20
2023-01-08T06:56:28.647Z,3.15
2023-01-08T06:58:56.848Z,3.55
2023-01-08T07:01:24.384Z,3.08
2023-01-08T07:03:51.391Z,3.17
2023-01-08T07:06:22.684Z,3.50
2023-01-08T07:08:50.186Z,3.13
2023-01-08T07:11:17.923Z,3.15
2023-01-08T07:13:44.833Z,2.70
2023-01-08T07:16:14.295Z,3.00
2023-01-08T07:18:43.044Z,3.55
2023-01-08T07:21:28.485Z,3.40
2023-01-08T07:23:59.705Z,3.20
2023-01-08T07:26:27.817Z,3.08
2023-01-08T07:28:54.924Z,3.72
2023-01-08T07:31:22.214Z,3.00
2023-01-08T07:33:49.392Z,3.33
2023-01-08T07:36:16.764Z,3.65
2023-01-08T07:38:43.685Z,3.55
2023-01-08T07:41:13.506Z,3.08
2023-01-08T07:43:40.528Z,2.97
2023-01-08T07:46:07.752Z,3.10
2023-01-08T07:48:34.923Z,3.47
2023-01-08T07:51:07.588Z,3.10
2023-01-08T07:53:36.178Z,3.22
2023-01-08T07:56:06.003Z,3.08
2023-01-08T07:58:33.106Z,3.25
2023-01-08T08:01:00.933Z,3.00
2023-01-08T08:03:28.247Z,3.17
2023-01-08T08:06:20.696Z,3.92
2023-01-08T08:08:48.005Z,5.13
2023-01-08T08:11:25.204Z,3.80
2023-01-08T08:13:53.807Z,3.92
2023-01-08T08:16:21.721Z,3.80
2023-01-08T08:18:48.659Z,3.25
2023-01-08T08:21:15.532Z,3.47
2023-01-08T08:23:42.932Z,3.58
2023-01-08T08:26:10.012Z,3.47
2023-01-08T08:28:36.964Z,4.10
2023-01-08T08:31:03.943Z,3.33
2023-01-08T08:33:31.208Z,3.28
2023-01-08T08:35:58.582Z,2.85
2023-01-08T08:38:26.667Z,3.78
2023-01-08T08:40:53.869Z,3.88
2023-01-08T08:43:20.842Z,3.50
2023-01-08T08:45:47.927Z,3.60
2023-01-08T08:48:16.837Z,3.70
2023-01-08T08:50:43.808Z,3.55
2023-01-08T08:53:10.856Z,4.10
2023-01-08T08:55:37.859Z,4.05
2023-01-08T08:58:13.924Z,4.70
2023-01-08T09:00:43.205Z,3.47
2023-01-08T09:03:15.586Z,3.70
2023-01-08T09:05:45.631Z,4.28
2023-01-08T09:08:31.696Z,4.40
2023-01-08T09:11:17.376Z,4.18
2023-01-08T09:18:56.644Z,4.22
2023-01-08T09:21:23.664Z,3.67
2023-01-08T09:23:50.841Z,3.72
2023-01-08T09:26:17.847Z,4.88
2023-01-08T09:28:44.891Z,3.67
2023-01-08T09:31:11.902Z,4.00
2023-01-08T09:33:39.017Z,3.55
2023-01-08T09:36:11.100Z,4.80
2023-01-08T09:38:38.056Z,4.72
2023-01-08T09:41:12.967Z,4.18
2023-01-08T09:43:59.553Z,4.43
2023-01-08T09:46:46.930Z,5.28
2023-01-08T09:49:21.870Z,4.13
2023-01-08T09:51:49.056Z,4.20
2023-01-08T09:54:17.766Z,4.53
2023-01-08T09:56:45.032Z,4.20
2023-01-08T09:59:16.818Z,4.93
2023-01-08T10:01:45.994Z,4.78
2023-01-08T10:04:24.221Z,4.28
2023-01-08T10:07:24.767Z,4.13
2023-01-08T10:09:53.092Z,4.25
2023-01-08T10:12:32.281Z,4.03
2023-01-08T10:15:02.930Z,4.45
2023-01-08T10:17:48.413Z,4.32
2023-01-08T10:20:41.434Z,4.90
2023-01-08T10:23:17.637Z,4.75
2023-01-08T10:26:02.548Z,4.07
2023-01-08T10:31:11.468Z,4.28
2023-01-08T10:33:43.778Z,5.95
2023-01-08T10:36:19.335Z,4.40
2023-01-08T10:39:01.027Z,4.90
2023-01-08T10:41:28.807Z,14.40
2023-01-08T10:47:38.422Z,4.80
2023-01-08T10:50:38.046Z,5.78
2023-01-08T10:53:18.351Z,5.20
2023-01-08T10:55:45.356Z,5.53
2023-01-08T10:58:15.463Z,5.55
2023-01-08T11:00:42.731Z,6.05
2023-01-08T11:03:30.071Z,6.28
2023-01-08T11:05:57.503Z,6.32
2023-01-08T11:08:25.015Z,7.13
2023-01-08T11:11:00.129Z,7.07
2023-01-08T11:13:28.694Z,8.45
2023-01-08T11:16:07.125Z,7.07
2023-01-08T11:18:46.904Z,6.82
2023-01-08T11:21:25.934Z,7.55
2023-01-08T11:24:02.372Z,5.90
2023-01-08T11:26:29.699Z,6.90
2023-01-08T11:29:06.389Z,7.60
2023-01-08T11:32:07.180Z,6.53
2023-01-08T11:35:03.618Z,6.78
2023-01-08T11:37:40.749Z,7.25
2023-01-08T11:43:11.201Z,7.22
2023-01-08T11:46:16.684Z,5.95
2023-01-08T11:49:01.272Z,6.75
2023-01-08T11:51:58.534Z,7.15
2023-01-08T11:54:44.129Z,7.50
2023-01-08T11:57:24.686Z,8.23
2023-01-08T12:00:16.551Z,8.48
2023-01-08T12:02:53.303Z,8.43
2023-01-08T12:05:45.208Z,7.95
2023-01-08T12:08:41.690Z,8.48
2023-01-08T12:11:27.765Z,7.85
2023-01-08T12:14:17.555Z,7.57
2023-01-08T12:17:04.388Z,8.90
2023-01-08T12:19:52.221Z,9.23
2023-01-08T12:22:56.684Z,8.35
2023-01-08T12:25:47.867Z,8.50
2023-01-08T12:28:33.473Z,8.90
2023-01-08T12:31:00.820Z,8.55
2023-01-08T12:33:33.633Z,8.55
2023-01-08T12:36:06.246Z,9.43
2023-01-08T12:38:38.239Z,8.60
2023-01-08T12:41:21.854Z,10.02
2023-01-08T12:44:11.576Z,8.73
2023-01-08T12:47:02.949Z,9.00
2023-01-08T12:49:51.568Z,9.43
2023-01-08T12:52:45.251Z,9.88
2023-01-08T12:55:33.887Z,9.70
2023-01-08T12:58:11.714Z,9.90
2023-01-08T13:01:11.040Z,10.90
2023-01-08T13:03:49.211Z,10.98
2023-01-08T13:06:20.751Z,13.13
2023-01-08T13:08:51.592Z,11.07
2023-01-08T13:11:33.658Z,10.90
2023-01-08T13:14:10.699Z,10.75
2023-01-08T13:17:00.406Z,10.95
2023-01-08T13:19:47.065Z,12.40
2023-01-08T13:22:33.083Z,10.82
2023-01-08T13:28:00.725Z,9.77
2023-01-08T13:30:35.736Z,10.15
2023-01-08T13:33:03.031Z,10.48
2023-01-08T13:35:31.669Z,11.07
2023-01-08T13:38:11.209Z,10.00
2023-01-08T13:40:44.552Z,9.40
2023-01-08T13:43:36.102Z,9.60
2023-01-08T13:46:03.221Z,9.82
2023-01-08T13:49:01.677Z,9.55
2023-01-08T13:51:42.936Z,10.43
2023-01-08T13:54:12.876Z,9.02
2023-01-08T13:56:45.648Z,9.15
2023-01-08T13:59:41.098Z,9.27
2023-01-08T14:02:28.849Z,9.35
2023-01-08T14:04:57.382Z,9.35
2023-01-08T14:07:31.120Z,8.88
2023-01-08T14:10:37.621Z,7.93
2023-01-08T14:13:08.766Z,7.70
2023-01-08T14:15:38.623Z,7.68
2023-01-08T14:18:06.655Z,7.10
2023-01-08T14:20:36.973Z,7.30
2023-01-08T14:23:38.201Z,7.25
2023-01-08T14:26:10.713Z,6.20
2023-01-08T14:31:27.532Z,5.60
2023-01-08T14:34:16.154Z,5.35
2023-01-08T14:37:02.527Z,4.93
2023-01-08T14:39:35.310Z,4.70
2023-01-08T14:42:28.682Z,5.40
2023-01-08T14:44:58.612Z,5.88
2023-01-08T14:47:30.828Z,5.55
2023-01-08T14:49:58.615Z,5.80
2023-01-08T14:52:26.812Z,5.75
2023-01-08T14:54:56.529Z,6.07
2023-01-08T14:57:24.351Z,6.30
2023-01-08T14:59:57.852Z,6.10
2023-01-08T15:02:39.409Z,6.40
2023-01-08T15:05:32.138Z,6.25
2023-01-08T15:08:22.865Z,5.10
2023-01-08T15:11:18.948Z,6.45
2023-01-08T15:13:48.501Z,5.57
2023-01-08T15:16:30.061Z,5.55
2023-01-08T15:19:07.649Z,5.38
2023-01-08T15:21:35.403Z,5.75
2023-01-08T15:24:05.876Z,4.32
2023-01-08T15:26:33.859Z,4.88
2023-01-08T15:29:24.348Z,4.60
2023-01-08T15:31:51.487Z,4.25
2023-01-08T15:34:21.732Z,4.20
2023-01-08T15:36:51.804Z,4.38
2023-01-08T15:39:27.424Z,4.75
2023-01-08T15:42:13.839Z,4.93
2023-01-08T15:44:41.213Z,4.05
2023-01-08T15:47:11.873Z,4.20
2023-01-08T15:49:38.800Z,3.63
2023-01-08T15:52:05.881Z,3.95
2023-01-08T15:54:32.791Z,4.00
2023-01-08T15:57:00.888Z,3.50
2023-01-08T15:59:31.680Z,3.78
2023-01-08T16:01:58.887Z,3.58
2023-01-08T16:04:25.841Z,4.30
2023-01-08T16:06:52.867Z,3.88
2023-01-08T16:12:29.156Z,2.72
2023-01-08T16:15:15.080Z,3.15
2023-01-08T16:17:43.359Z,3.40
2023-01-08T16:20:11.696Z,3.75
2023-01-08T16:22:38.814Z,3.78
2023-01-08T16:29:15.070Z,4.20
2023-01-08T16:31:50.278Z,4.97
2023-01-08T16:34:21.233Z,4.85
2023-01-08T16:36:49.520Z,5.38
2023-01-08T16:39:18.065Z,6.35
2023-01-08T16:41:47.562Z,6.35
2023-01-08T16:44:21.399Z,7.30
2023-01-08T16:46:52.059Z,6.70
2023-01-08T16:49:19.251Z,7.18
2023-01-08T16:51:46.499Z,6.90
2023-01-08T16:54:15.357Z,7.45
2023-01-08T16:56:42.947Z,7.53
2023-01-08T16:59:22.376Z,6.93
2023-01-08T17:01:51.993Z,8.25
2023-01-08T17:04:29.707Z,7.97
2023-01-08T17:07:00.349Z,7.13
2023-01-08T17:09:35.044Z,8.10
2023-01-08T17:12:23.575Z,7.18
2023-01-08T17:14:53.461Z,7.97
2023-01-08T17:17:29.263Z,7.95
2023-01-08T17:19:56.729Z,7.80
2023-01-08T17:22:26.632Z,7.97
2023-01-08T17:24:53.549Z,7.78
2023-01-08T17:27:22.516Z,6.93
2023-01-08T17:29:49.884Z,7.32
2023-01-08T17:32:16.861Z,7.65
2023-01-08T17:34:44.121Z,6.28
2023-01-08T17:37:13.577Z,6.20
2023-01-08T17:39:40.629Z,6.38
2023-01-08T17:42:30.968Z,5.82
2023-01-08T17:45:03.055Z,5.45
2023-01-08T17:47:31.011Z,5.55
2023-01-08T17:49:58.240Z,4.75
2023-01-08T17:52:26.522Z,5.03
2023-01-08T17:54:54.415Z,7.10
2023-01-08T17:57:22.446Z,6.57
2023-01-08T18:00:00.048Z,7.03
2023-01-08T18:02:28.016Z,5.65
2023-01-08T18:04:55.170Z,5.47
2023-01-08T18:07:24.309Z,5.57
2023-01-08T18:10:04.310Z,5.35
2023-01-08T18:12:36.654Z,4.25
2023-01-08T18:15:33.203Z,5.35
2023-01-08T18:18:02.420Z,4.28
2023-01-08T18:20:39.430Z,4.40
2023-01-08T18:23:06.485Z,4.68
2023-01-08T18:25:35.425Z,4.90
2023-01-08T18:28:04.188Z,5.68
2023-01-08T18:30:46.012Z,3.28
2023-01-08T18:33:52.214Z,5.05
2023-01-08T18:36:22.824Z,5.22
2023-01-08T18:38:50.073Z,5.93
2023-01-08T18:41:37.715Z,5.88
2023-01-08T18:44:11.381Z,5.97
2023-01-08T18:53:50.476Z,6.05
2023-01-08T18:56:28.227Z,6.03
2023-01-08T18:58:56.230Z,5.38
2023-01-08T19:01:24.015Z,5.15
2023-01-08T19:03:55.903Z,5.72
2023-01-08T19:06:24.153Z,6.10
2023-01-08T19:08:56.237Z,5.65
2023-01-08T19:12:11.984Z,5.10
2023-01-08T19:14:39.284Z,4.72
2023-01-08T19:17:06.476Z,4.90
2023-01-08T19:19:33.485Z,5.72
2023-01-08T19:22:01.122Z,5.47
2023-01-08T19:24:31.466Z,5.35
2023-01-08T19:26:58.391Z,5.13
2023-01-08T19:29:32.418Z,4.78
2023-01-08T19:31:59.516Z,5.10
2023-01-08T19:34:26.494Z,4.70
2023-01-08T19:37:01.269Z,5.65
2023-01-08T19:39:41.779Z,5.00
2023-01-08T19:42:34.946Z,4.88
2023-01-08T19:45:41.717Z,4.25
2023-01-08T19:48:09.095Z,3.78
2023-01-08T19:50:39.852Z,3.13
2023-01-08T19:53:15.148Z,3.80
2023-01-08T19:55:42.367Z,3.70
2023-01-08T19:58:09.407Z,3.40
2023-01-08T20:00:39.277Z,5.40
2023-01-08T20:03:12.370Z,3.60
2023-01-08T20:05:45.491Z,3.53
2023-01-08T20:12:20.276Z,3.47
2023-01-08T20:15:57.317Z,4.30
2023-01-08T20:22:40.677Z,2.70
2023-01-08T20:29:04.849Z,3.63
2023-01-08T20:31:34.633Z,3.03
2023-01-08T20:43:29.275Z,2.17
2023-01-08T20:45:56.530Z,2.30
2023-01-08T20:52:16.406Z,2.17
2023-01-08T20:55:06.078Z,2.60
2023-01-08T20:58:33.361Z,2.15
2023-01-08T21:06:24.281Z,2.63
2023-01-08T21:08:58.957Z,2.50
2023-01-08T21:13:55.994Z,3.13
2023-01-08T21:16:45.673Z,3.35
2023-01-08T21:19:15.187Z,3.50
2023-01-08T21:21:42.208Z,2.80
2023-01-08T21:24:12.878Z,3.63
2023-01-08T21:27:01.801Z,2.80
2023-01-08T21:29:29.448Z,2.60
2023-01-08T21:31:57.211Z,3.80
2023-01-08T21:34:24.176Z,3.13
2023-01-08T21:37:09.638Z,3.10
2023-01-08T21:39:38.999Z,3.42
2023-01-08T21:42:24.503Z,3.28
2023-01-08T21:45:10.086Z,3.15
2023-01-08T21:47:37.065Z,3.83
2023-01-08T21:50:04.136Z,4.63
2023-01-08T21:53:08.524Z,4.20
2023-01-08T21:55:35.494Z,4.72
2023-01-08T21:58:20.936Z,4.47
2023-01-08T22:00:47.846Z,4.15
2023-01-08T22:03:14.813Z,3.92
2023-01-08T22:06:03.127Z,3.78
2023-01-08T22:08:31.382Z,4.22
2023-01-08T22:11:00.521Z,3.15
2023-01-08T22:13:28.103Z,3.40
2023-01-08T22:16:07.858Z,2.40
2023-01-08T22:18:35.784Z,2.80
2023-01-08T22:23:57.203Z,2.80
2023-01-08T22:26:30.704Z,2.92
2023-01-08T22:28:59.896Z,2.28
2023-01-08T22:31:35.605Z,2.33
2023-01-08T22:34:05.612Z,2.53
2023-01-08T22:36:32.568Z,1.77
2023-01-08T22:38:59.642Z,1.58
2023-01-08T22:41:26.622Z,1.83
2023-01-08T22:43:56.992Z,1.80
2023-01-08T22:46:24.728Z,2.10
2023-01-08T22:49:01.522Z,1.85
2023-01-08T22:51:28.792Z,1.63
2023-01-08T22:54:03.726Z,2.15
2023-01-08T22:56:30.944Z,1.95
2023-01-08T22:58:58.231Z,1.88
2023-01-08T23:01:29.469Z,2.42
2023-01-08T23:04:00.156Z,2.05
2023-01-08T23:06:29.545Z,2.30
2023-01-08T23:08:58.369Z,2.10
2023-01-08T23:11:27.940Z,2.00
2023-01-08T23:14:20.055Z,2.58
2023-01-08T23:16:47.148Z,2.65
2023-01-08T23:19:15.180Z,2.75
2023-01-08T23:21:45.947Z,3.08
2023-01-08T23:24:13.909Z,2.50
2023-01-08T23:26:41.932Z,2.03
2023-01-08T23:29:09.610Z,2.20
2023-01-08T23:31:41.280Z,2.53
2023-01-08T23:34:08.430Z,2.55
2023-01-08T23:36:35.979Z,2.60
2023-01-08T23:39:04.901Z,2.17
2023-01-08T23:41:34.573Z,2.42
2023-01-08T23:44:07.413Z,2.40
2023-01-08T23:46:35.422Z,2.20
2023-01-08T23:49:02.393Z,2.28
2023-01-08T23:51:33.454Z,2.30
2023-01-08T23:54:00.507Z,2.25
2023-01-08T23:56:27.507Z,1.90
2023-01-08T23:58:57.847Z,2.03
